createdAt,value
2023-03-16T00:00:23.076Z,3.27
2023-03-16T00:05:25.892Z,2.97
2023-03-16T00:10:29.251Z,2.50
2023-03-16T00:15:31.130Z,3.07
2023-03-16T00:20:33.600Z,4.03
2023-03-16T00:25:36.853Z,2.97
2023-03-16T00:30:38.596Z,2.93
2023-03-16T00:35:40.300Z,2.83
2023-03-16T00:40:43.386Z,2.90
2023-03-16T00:45:45.204Z,2.63
2023-03-16T00:50:46.951Z,2.73
2023-03-16T00:55:50.096Z,2.90
2023-03-16T01:00:54.308Z,2.70
2023-03-16T01:05:59.979Z,3.13
2023-03-16T01:11:06.388Z,2.90
2023-03-16T01:16:09.263Z,3.60
2023-03-16T01:21:13.701Z,2.77
2023-03-16T01:26:18.049Z,2.90
2023-03-16T01:31:21.688Z,3.00
2023-03-16T01:36:23.546Z,3.20
2023-03-16T01:41:31.148Z,2.20
2023-03-16T01:46:33.248Z,3.37
2023-03-16T01:51:37.907Z,2.90
2023-03-16T01:56:42.348Z,3.17
2023-03-16T02:01:44.175Z,2.60
2023-03-16T02:06:45.988Z,2.60
2023-03-16T02:11:49.106Z,2.60
2023-03-16T02:16:50.948Z,2.33
2023-03-16T02:21:55.305Z,2.40
2023-03-16T02:26:59.457Z,2.20
2023-03-16T02:32:07.505Z,2.47
2023-03-16T02:37:09.287Z,2.60
2023-03-16T02:42:12.347Z,2.00
2023-03-16T02:47:18.101Z,2.50
2023-03-16T02:52:19.983Z,2.43
2023-03-16T02:57:21.915Z,2.27
2023-03-16T03:02:25.495Z,2.10
2023-03-16T03:07:31.791Z,2.40
2023-03-16T03:12:38.241Z,2.50
2023-03-16T03:17:44.292Z,2.63
2023-03-16T03:22:47.789Z,2.30
2023-03-16T03:27:50.115Z,2.50
2023-03-16T03:32:56.682Z,2.37
2023-03-16T03:37:58.590Z,3.60
2023-03-16T03:43:01.486Z,2.60
2023-03-16T03:48:06.109Z,2.90
2023-03-16T03:53:08.839Z,2.50
2023-03-16T03:58:22.668Z,2.60
2023-03-16T04:03:26.004Z,2.40
2023-03-16T04:08:28.291Z,2.97
2023-03-16T04:13:30.141Z,3.27
2023-03-16T04:18:38.507Z,2.73
2023-03-16T04:23:42.568Z,2.73
2023-03-16T04:28:44.349Z,3.07
2023-03-16T04:33:50.813Z,3.47
2023-03-16T04:38:52.943Z,3.10
2023-03-16T04:43:54.731Z,3.00
2023-03-16T04:49:00.315Z,3.70
2023-03-16T04:54:03.699Z,3.40
2023-03-16T04:59:10.690Z,3.47
2023-03-16T05:04:24.537Z,2.90
2023-03-16T05:09:26.566Z,3.23
2023-03-16T05:14:28.334Z,3.43
2023-03-16T05:19:45.274Z,3.13
2023-03-16T05:24:48.345Z,4.53
2023-03-16T05:29:50.335Z,3.70
2023-03-16T05:34:53.534Z,2.83
2023-03-16T05:39:57.636Z,3.30
2023-03-16T05:44:59.662Z,3.90
2023-03-16T05:50:14.187Z,4.20
2023-03-16T05:55:17.787Z,3.10
2023-03-16T06:00:25.780Z,2.93
2023-03-16T06:05:39.764Z,3.10
2023-03-16T06:10:42.133Z,2.73
2023-03-16T06:15:44.281Z,2.70
2023-03-16T06:20:48.580Z,3.33
2023-03-16T06:25:50.530Z,2.83
2023-03-16T06:30:56.486Z,3.07
2023-03-16T06:36:02.642Z,2.40
2023-03-16T06:41:17.746Z,2.80
2023-03-16T06:46:21.434Z,3.20
2023-03-16T06:51:24.757Z,2.90
2023-03-16T06:56:27.879Z,3.53
2023-03-16T07:01:31.819Z,4.00
2023-03-16T07:06:35.186Z,4.03
2023-03-16T07:11:36.997Z,3.30
2023-03-16T07:16:38.767Z,3.23
2023-03-16T07:21:43.804Z,2.90
2023-03-16T07:26:50.021Z,2.90
2023-03-16T07:32:00.601Z,3.80
2023-03-16T07:37:11.641Z,2.53
2023-03-16T07:42:14.614Z,2.70
2023-03-16T07:47:38.682Z,2.30
2023-03-16T07:53:00.540Z,1.93
2023-03-16T07:58:04.929Z,2.80
2023-03-16T08:03:08.630Z,2.27
2023-03-16T08:08:12.497Z,2.50
2023-03-16T08:13:15.430Z,3.00
2023-03-16T08:18:19.348Z,2.83
2023-03-16T08:23:24.136Z,3.60
2023-03-16T08:28:26.273Z,2.83
2023-03-16T08:33:30.015Z,2.90
2023-03-16T08:38:33.665Z,2.80
2023-03-16T08:43:39.417Z,3.10
2023-03-16T08:48:41.680Z,2.58
2023-03-16T08:53:45.244Z,2.17
2023-03-16T08:58:47.168Z,2.00
2023-03-16T09:03:48.890Z,2.08
2023-03-16T09:08:53.419Z,1.65
2023-03-16T09:13:55.101Z,1.70
2023-03-16T09:18:56.797Z,1.65
2023-03-16T09:24:00.234Z,1.35
2023-03-16T09:29:02.168Z,1.00
2023-03-16T09:34:04.818Z,1.70
2023-03-16T09:39:07.889Z,1.40
2023-03-16T09:44:13.668Z,1.90
2023-03-16T09:49:16.576Z,1.75
2023-03-16T09:54:23.576Z,1.75
2023-03-16T09:59:25.444Z,1.25
2023-03-16T10:04:35.612Z,1.50
2023-03-16T10:09:42.484Z,1.20
2023-03-16T10:14:46.977Z,1.38
2023-03-16T10:19:49.822Z,1.05
2023-03-16T10:24:57.905Z,1.55
2023-03-16T10:30:01.175Z,1.08
2023-03-16T10:35:06.091Z,1.38
2023-03-16T10:40:12.718Z,1.10
2023-03-16T10:45:22.990Z,0.93
2023-03-16T10:50:25.340Z,1.15
2023-03-16T10:55:31.142Z,1.15
2023-03-16T11:00:36.079Z,1.00
2023-03-16T11:05:38.205Z,1.13
2023-03-16T11:10:54.726Z,1.05
2023-03-16T11:16:01.581Z,2.47
2023-03-16T11:21:06.742Z,1.30
2023-03-16T11:26:12.675Z,1.20
2023-03-16T11:31:19.983Z,1.00
2023-03-16T11:36:29.922Z,1.30
2023-03-16T11:41:38.207Z,1.13
2023-03-16T11:46:41.920Z,1.10
2023-03-16T11:51:47.363Z,1.00
2023-03-16T11:56:52.739Z,1.17
2023-03-16T12:02:02.664Z,0.97
2023-03-16T12:07:12.168Z,1.10
2023-03-16T12:12:23.086Z,1.03
2023-03-16T12:17:25.732Z,1.00
2023-03-16T12:22:28.395Z,0.93
2023-03-16T12:27:33.236Z,1.10
2023-03-16T12:32:40.982Z,1.13
2023-03-16T12:37:44.621Z,0.90
2023-03-16T12:43:13.900Z,1.00
2023-03-16T12:48:20.393Z,1.40
2023-03-16T12:53:29.008Z,1.20
2023-03-16T12:58:32.940Z,0.90
2023-03-16T13:03:34.720Z,1.00
2023-03-16T13:08:41.253Z,0.80
2023-03-16T13:13:52.517Z,0.90
2023-03-16T13:18:54.789Z,0.83
2023-03-16T13:23:58.347Z,1.07
2023-03-16T13:29:06.324Z,0.80
2023-03-16T13:34:11.748Z,1.00
2023-03-16T13:39:15.370Z,1.30
2023-03-16T13:44:18.697Z,1.27
2023-03-16T13:49:20.469Z,1.20
2023-03-16T13:54:23.887Z,1.20
2023-03-16T13:59:26.930Z,1.70
2023-03-16T14:04:29.757Z,1.97
2023-03-16T14:09:33.140Z,1.30
2023-03-16T14:14:39.346Z,1.23
2023-03-16T14:19:44.366Z,1.57
2023-03-16T14:24:47.935Z,1.43
2023-03-16T14:29:56.838Z,1.90
2023-03-16T14:35:13.022Z,1.40
2023-03-16T14:40:24.245Z,1.60
2023-03-16T14:45:31.648Z,1.60
2023-03-16T14:50:34.579Z,1.90
2023-03-16T14:55:37.544Z,1.30
2023-03-16T15:00:52.251Z,1.33
2023-03-16T15:05:54.994Z,1.53
2023-03-16T15:10:57.269Z,2.87
2023-03-16T15:16:00.640Z,2.00
2023-03-16T15:21:02.812Z,2.27
2023-03-16T15:26:07.374Z,2.90
2023-03-16T15:31:12.335Z,2.10
2023-03-16T15:36:14.907Z,4.03
2023-03-16T15:41:17.016Z,2.00
2023-03-16T15:46:21.211Z,2.20
2023-03-16T15:51:24.537Z,2.13
2023-03-16T15:56:30.152Z,1.80
2023-03-16T16:01:38.260Z,2.40
2023-03-16T16:06:39.920Z,1.93
2023-03-16T16:11:41.639Z,2.47
2023-03-16T16:16:45.805Z,2.10
2023-03-16T16:21:47.857Z,1.90
2023-03-16T16:26:54.371Z,2.20
2023-03-16T16:31:59.019Z,1.80
2023-03-16T16:37:01.163Z,1.93
2023-03-16T16:42:03.165Z,1.80
2023-03-16T16:47:11.164Z,1.97
2023-03-16T16:52:14.315Z,3.97
2023-03-16T16:57:18.243Z,4.77
2023-03-16T17:02:28.379Z,1.90
2023-03-16T17:07:30.733Z,2.00
2023-03-16T17:12:32.435Z,1.90
2023-03-16T17:17:35.805Z,1.90
2023-03-16T17:22:37.507Z,2.40
2023-03-16T17:27:39.261Z,2.20
2023-03-16T17:32:42.319Z,2.57
2023-03-16T17:37:47.286Z,2.10
2023-03-16T17:42:49.102Z,2.87
2023-03-16T17:47:52.910Z,3.43
2023-03-16T17:52:54.737Z,2.70
2023-03-16T17:57:56.422Z,2.57
2023-03-16T18:03:00.793Z,3.10
2023-03-16T18:08:10.699Z,2.20
2023-03-16T18:13:17.782Z,1.70
2023-03-16T18:18:22.316Z,1.80
2023-03-16T18:23:26.193Z,3.30
2023-03-16T18:28:28.710Z,2.17
2023-03-16T18:33:32.758Z,1.70
2023-03-16T18:38:35.672Z,2.20
2023-03-16T18:43:37.578Z,4.10
2023-03-16T18:48:40.605Z,4.00
2023-03-16T18:53:42.898Z,2.47
2023-03-16T18:58:45.706Z,2.40
2023-03-16T19:03:49.630Z,3.20
2023-03-16T19:08:51.570Z,3.20
2023-03-16T19:13:54.700Z,3.23
2023-03-16T19:18:57.839Z,2.10
2023-03-16T19:24:00.794Z,2.00
2023-03-16T19:29:02.741Z,1.80
2023-03-16T19:34:06.020Z,3.10
2023-03-16T19:39:08.305Z,3.43
2023-03-16T19:44:13.976Z,3.50
2023-03-16T19:49:18.284Z,3.17
2023-03-16T19:54:21.739Z,2.10
2023-03-16T19:59:24.419Z,2.40
2023-03-16T20:04:28.060Z,3.13
2023-03-16T20:09:30.023Z,2.80
2023-03-16T20:14:32.465Z,2.70
2023-03-16T20:19:35.501Z,2.10
2023-03-16T20:24:37.242Z,2.13
2023-03-16T20:29:39.415Z,2.63
2023-03-16T20:34:42.457Z,2.43
2023-03-16T20:39:45.120Z,8.40
2023-03-16T20:44:47.578Z,2.57
2023-03-16T20:49:50.880Z,2.63
2023-03-16T20:54:52.605Z,2.60
2023-03-16T20:59:55.337Z,2.40
2023-03-16T21:04:59.258Z,2.20
2023-03-16T21:10:01.378Z,1.90
2023-03-16T21:15:07.974Z,1.90
2023-03-16T21:20:15.927Z,2.30
2023-03-16T21:25:19.443Z,1.90
2023-03-16T21:30:24.590Z,2.47
2023-03-16T21:35:32.306Z,2.00
2023-03-16T21:40:34.221Z,2.20
2023-03-16T21:45:36.009Z,2.10
2023-03-16T21:50:39.501Z,2.27
2023-03-16T21:55:41.357Z,1.80
2023-03-16T22:00:43.208Z,1.90
2023-03-16T22:05:46.404Z,2.07
2023-03-16T22:10:48.323Z,2.07
2023-03-16T22:15:51.554Z,2.37
2023-03-16T22:20:54.672Z,2.30
2023-03-16T22:25:56.472Z,2.70
2023-03-16T22:30:58.728Z,2.37
2023-03-16T22:36:04.823Z,2.47
2023-03-16T22:41:06.642Z,2.53
2023-03-16T22:46:11.590Z,2.30
2023-03-16T22:51:18.876Z,2.90
2023-03-16T22:56:20.664Z,2.43
2023-03-16T23:01:24.275Z,3.00
2023-03-16T23:06:28.365Z,2.93
2023-03-16T23:11:31.339Z,2.70
2023-03-16T23:16:34.111Z,2.77
2023-03-16T23:21:37.840Z,3.07
2023-03-16T23:26:39.730Z,2.53
2023-03-16T23:31:41.604Z,2.80
2023-03-16T23:36:44.675Z,2.93
2023-03-16T23:41:47.743Z,2.80
2023-03-16T23:46:49.440Z,2.30
2023-03-16T23:51:52.503Z,2.70
2023-03-16T23:56:54.273Z,3.00
